sensor_id;sensor_type;location;lat;lon;timestamp;P1;durP1;ratioP1;P2;durP2;ratioP2
51814;SDS011;37874;53.158;6.766;2023-07-31T00:02:02;2.15;;;0.80;;
51814;SDS011;37874;53.158;6.766;2023-07-31T00:04:28;2.40;;;0.80;;
51814;SDS011;37874;53.158;6.766;2023-07-31T00:06:53;2.60;;;0.80;;
51814;SDS011;37874;53.158;6.766;2023-07-31T00:09:19;2.38;;;0.77;;
51814;SDS011;37874;53.158;6.766;2023-07-31T00:11:45;1.92;;;0.85;;
51814;SDS011;37874;53.158;6.766;2023-07-31T00:14:10;2.92;;;0.88;;
51814;SDS011;37874;53.158;6.766;2023-07-31T00:16:36;2.13;;;0.77;;
51814;SDS011;37874;53.158;6.766;2023-07-31T00:19:02;2.92;;;1.00;;
51814;SDS011;37874;53.158;6.766;2023-07-31T00:21:27;1.88;;;0.68;;
51814;SDS011;37874;53.158;6.766;2023-07-31T00:23:53;1.85;;;0.80;;
51814;SDS011;37874;53.158;6.766;2023-07-31T00:26:18;3.92;;;0.80;;
51814;SDS011;37874;53.158;6.766;2023-07-31T00:28:44;1.85;;;0.90;;
51814;SDS011;37874;53.158;6.766;2023-07-31T00:31:10;2.70;;;0.80;;
51814;SDS011;37874;53.158;6.766;2023-07-31T00:33:35;1.92;;;0.70;;
51814;SDS011;37874;53.158;6.766;2023-07-31T00:36:01;2.30;;;0.82;;
51814;SDS011;37874;53.158;6.766;2023-07-31T00:38:27;1.27;;;0.60;;
51814;SDS011;37874;53.158;6.766;2023-07-31T00:40:53;1.60;;;0.75;;
51814;SDS011;37874;53.158;6.766;2023-07-31T00:43:18;1.30;;;0.60;;
51814;SDS011;37874;53.158;6.766;2023-07-31T00:45:44;1.60;;;0.70;;
51814;SDS011;37874;53.158;6.766;2023-07-31T00:48:10;1.90;;;0.85;;
51814;SDS011;37874;53.158;6.766;2023-07-31T00:50:36;2.83;;;0.90;;
51814;SDS011;37874;53.158;6.766;2023-07-31T00:53:02;1.98;;;0.88;;
51814;SDS011;37874;53.158;6.766;2023-07-31T00:55:28;2.08;;;0.90;;
51814;SDS011;37874;53.158;6.766;2023-07-31T00:57:54;1.48;;;0.57;;
51814;SDS011;37874;53.158;6.766;2023-07-31T01:00:21;1.55;;;0.70;;
51814;SDS011;37874;53.158;6.766;2023-07-31T01:02:47;1.50;;;0.80;;
51814;SDS011;37874;53.158;6.766;2023-07-31T01:05:14;3.45;;;0.70;;
51814;SDS011;37874;53.158;6.766;2023-07-31T01:07:56;1.65;;;0.68;;
51814;SDS011;37874;53.158;6.766;2023-07-31T01:11:04;1.50;;;0.73;;
51814;SDS011;37874;53.158;6.766;2023-07-31T01:14:03;1.10;;;0.50;;
51814;SDS011;37874;53.158;6.766;2023-07-31T01:16:29;2.10;;;0.80;;
51814;SDS011;37874;53.158;6.766;2023-07-31T01:18:55;1.83;;;0.70;;
51814;SDS011;37874;53.158;6.766;2023-07-31T01:26:58;1.50;;;0.68;;
51814;SDS011;37874;53.158;6.766;2023-07-31T01:30:03;1.48;;;0.57;;
51814;SDS011;37874;53.158;6.766;2023-07-31T01:32:36;1.02;;;0.50;;
51814;SDS011;37874;53.158;6.766;2023-07-31T01:35:05;1.08;;;0.52;;
51814;SDS011;37874;53.158;6.766;2023-07-31T01:37:31;1.20;;;0.57;;
51814;SDS011;37874;53.158;6.766;2023-07-31T01:39:57;1.38;;;0.60;;
51814;SDS011;37874;53.158;6.766;2023-07-31T01:42:22;1.70;;;0.77;;
51814;SDS011;37874;53.158;6.766;2023-07-31T01:44:48;1.67;;;0.88;;
51814;SDS011;37874;53.158;6.766;2023-07-31T01:47:14;1.35;;;0.60;;
51814;SDS011;37874;53.158;6.766;2023-07-31T01:49:39;2.40;;;0.73;;
51814;SDS011;37874;53.158;6.766;2023-07-31T01:52:05;1.45;;;0.80;;
51814;SDS011;37874;53.158;6.766;2023-07-31T01:54:31;1.20;;;0.60;;
51814;SDS011;37874;53.158;6.766;2023-07-31T01:56:56;1.42;;;0.60;;
51814;SDS011;37874;53.158;6.766;2023-07-31T01:59:22;1.17;;;0.50;;
51814;SDS011;37874;53.158;6.766;2023-07-31T02:01:48;1.75;;;0.50;;
51814;SDS011;37874;53.158;6.766;2023-07-31T02:04:13;1.95;;;0.70;;
51814;SDS011;37874;53.158;6.766;2023-07-31T02:06:39;1.38;;;0.60;;
51814;SDS011;37874;53.158;6.766;2023-07-31T02:09:04;0.98;;;0.52;;
51814;SDS011;37874;53.158;6.766;2023-07-31T02:11:30;1.17;;;0.50;;
51814;SDS011;37874;53.158;6.766;2023-07-31T02:13:56;1.35;;;0.63;;
51814;SDS011;37874;53.158;6.766;2023-07-31T02:16:21;1.63;;;0.60;;
51814;SDS011;37874;53.158;6.766;2023-07-31T02:18:47;1.77;;;0.60;;
51814;SDS011;37874;53.158;6.766;2023-07-31T02:21:12;2.15;;;0.50;;
51814;SDS011;37874;53.158;6.766;2023-07-31T02:23:38;1.48;;;0.60;;
51814;SDS011;37874;53.158;6.766;2023-07-31T02:26:04;1.70;;;0.63;;
51814;SDS011;37874;53.158;6.766;2023-07-31T02:28:29;1.80;;;0.60;;
51814;SDS011;37874;53.158;6.766;2023-07-31T02:30:55;1.63;;;0.60;;
51814;SDS011;37874;53.158;6.766;2023-07-31T02:33:21;1.38;;;0.57;;
51814;SDS011;37874;53.158;6.766;2023-07-31T02:35:46;1.85;;;0.60;;
51814;SDS011;37874;53.158;6.766;2023-07-31T02:38:12;0.93;;;0.43;;
51814;SDS011;37874;53.158;6.766;2023-07-31T02:40:38;0.55;;;0.32;;
51814;SDS011;37874;53.158;6.766;2023-07-31T02:43:06;1.00;;;0.50;;
51814;SDS011;37874;53.158;6.766;2023-07-31T02:45:32;3.17;;;0.52;;
51814;SDS011;37874;53.158;6.766;2023-07-31T02:47:57;0.98;;;0.40;;
51814;SDS011;37874;53.158;6.766;2023-07-31T02:50:23;1.30;;;0.40;;
51814;SDS011;37874;53.158;6.766;2023-07-31T02:52:49;1.10;;;0.60;;
51814;SDS011;37874;53.158;6.766;2023-07-31T02:55:14;1.45;;;0.80;;
51814;SDS011;37874;53.158;6.766;2023-07-31T02:57:40;1.08;;;0.50;;
51814;SDS011;37874;53.158;6.766;2023-07-31T03:00:06;1.02;;;0.50;;
51814;SDS011;37874;53.158;6.766;2023-07-31T03:02:32;1.23;;;0.60;;
51814;SDS011;37874;53.158;6.766;2023-07-31T03:04:57;1.00;;;0.50;;
51814;SDS011;37874;53.158;6.766;2023-07-31T03:07:23;0.93;;;0.38;;
51814;SDS011;37874;53.158;6.766;2023-07-31T03:09:49;0.75;;;0.40;;
51814;SDS011;37874;53.158;6.766;2023-07-31T03:12:14;0.65;;;0.40;;
51814;SDS011;37874;53.158;6.766;2023-07-31T03:14:40;1.10;;;0.50;;
51814;SDS011;37874;53.158;6.766;2023-07-31T03:17:05;1.15;;;0.50;;
51814;SDS011;37874;53.158;6.766;2023-07-31T03:19:32;1.20;;;0.40;;
51814;SDS011;37874;53.158;6.766;2023-07-31T03:21:58;1.00;;;0.40;;
51814;SDS011;37874;53.158;6.766;2023-07-31T03:24:24;0.70;;;0.30;;
51814;SDS011;37874;53.158;6.766;2023-07-31T03:26:49;1.20;;;0.40;;
51814;SDS011;37874;53.158;6.766;2023-07-31T03:29:15;1.08;;;0.40;;
51814;SDS011;37874;53.158;6.766;2023-07-31T03:31:41;1.45;;;0.47;;
51814;SDS011;37874;53.158;6.766;2023-07-31T03:34:06;1.52;;;0.50;;
51814;SDS011;37874;53.158;6.766;2023-07-31T03:36:32;0.60;;;0.40;;
51814;SDS011;37874;53.158;6.766;2023-07-31T03:38:58;0.70;;;0.38;;
51814;SDS011;37874;53.158;6.766;2023-07-31T03:41:23;1.05;;;0.30;;
51814;SDS011;37874;53.158;6.766;2023-07-31T03:43:49;1.02;;;0.40;;
51814;SDS011;37874;53.158;6.766;2023-07-31T03:46:17;0.70;;;0.30;;
51814;SDS011;37874;53.158;6.766;2023-07-31T03:48:42;1.05;;;0.40;;
51814;SDS011;37874;53.158;6.766;2023-07-31T03:51:08;1.05;;;0.47;;
51814;SDS011;37874;53.158;6.766;2023-07-31T03:53:34;0.70;;;0.30;;
51814;SDS011;37874;53.158;6.766;2023-07-31T03:55:59;0.55;;;0.30;;
51814;SDS011;37874;53.158;6.766;2023-07-31T03:58:25;0.98;;;0.40;;
51814;SDS011;37874;53.158;6.766;2023-07-31T04:00:50;0.60;;;0.20;;
51814;SDS011;37874;53.158;6.766;2023-07-31T04:03:16;0.90;;;0.30;;
51814;SDS011;37874;53.158;6.766;2023-07-31T04:05:42;0.70;;;0.30;;
51814;SDS011;37874;53.158;6.766;2023-07-31T04:08:07;1.33;;;0.40;;
51814;SDS011;37874;53.158;6.766;2023-07-31T04:10:33;0.70;;;0.40;;
51814;SDS011;37874;53.158;6.766;2023-07-31T04:12:59;1.73;;;0.38;;
51814;SDS011;37874;53.158;6.766;2023-07-31T04:15:28;0.90;;;0.30;;
51814;SDS011;37874;53.158;6.766;2023-07-31T04:17:53;1.00;;;0.30;;
51814;SDS011;37874;53.158;6.766;2023-07-31T04:20:19;0.90;;;0.30;;
51814;SDS011;37874;53.158;6.766;2023-07-31T04:22:44;0.95;;;0.30;;
51814;SDS011;37874;53.158;6.766;2023-07-31T04:25:10;1.02;;;0.50;;
51814;SDS011;37874;53.158;6.766;2023-07-31T04:27:36;0.60;;;0.30;;
51814;SDS011;37874;53.158;6.766;2023-07-31T04:30:01;0.70;;;0.30;;
51814;SDS011;37874;53.158;6.766;2023-07-31T04:32:28;0.70;;;0.20;;
51814;SDS011;37874;53.158;6.766;2023-07-31T04:34:54;0.85;;;0.38;;
51814;SDS011;37874;53.158;6.766;2023-07-31T04:37:20;0.88;;;0.30;;
51814;SDS011;37874;53.158;6.766;2023-07-31T04:39:46;0.88;;;0.40;;
51814;SDS011;37874;53.158;6.766;2023-07-31T04:42:11;0.68;;;0.30;;
51814;SDS011;37874;53.158;6.766;2023-07-31T04:44:37;0.65;;;0.30;;
51814;SDS011;37874;53.158;6.766;2023-07-31T04:47:03;0.73;;;0.20;;
51814;SDS011;37874;53.158;6.766;2023-07-31T04:49:28;0.43;;;0.28;;
51814;SDS011;37874;53.158;6.766;2023-07-31T04:51:54;0.75;;;0.30;;
51814;SDS011;37874;53.158;6.766;2023-07-31T04:54:20;0.70;;;0.30;;
51814;SDS011;37874;53.158;6.766;2023-07-31T04:56:45;0.57;;;0.20;;
51814;SDS011;37874;53.158;6.766;2023-07-31T04:59:12;1.17;;;0.40;;
51814;SDS011;37874;53.158;6.766;2023-07-31T05:01:38;0.50;;;0.20;;
51814;SDS011;37874;53.158;6.766;2023-07-31T05:04:03;0.68;;;0.30;;
51814;SDS011;37874;53.158;6.766;2023-07-31T05:06:29;0.47;;;0.20;;
51814;SDS011;37874;53.158;6.766;2023-07-31T05:08:54;0.90;;;0.32;;
51814;SDS011;37874;53.158;6.766;2023-07-31T05:11:20;1.30;;;0.32;;
51814;SDS011;37874;53.158;6.766;2023-07-31T05:13:46;0.40;;;0.20;;
51814;SDS011;37874;53.158;6.766;2023-07-31T05:16:11;0.57;;;0.20;;
51814;SDS011;37874;53.158;6.766;2023-07-31T05:18:37;0.60;;;0.20;;
51814;SDS011;37874;53.158;6.766;2023-07-31T05:21:02;0.47;;;0.25;;
51814;SDS011;37874;53.158;6.766;2023-07-31T05:23:28;0.55;;;0.25;;
51814;SDS011;37874;53.158;6.766;2023-07-31T05:25:54;0.82;;;0.30;;
51814;SDS011;37874;53.158;6.766;2023-07-31T05:28:21;0.68;;;0.30;;
51814;SDS011;37874;53.158;6.766;2023-07-31T05:30:46;0.55;;;0.28;;
51814;SDS011;37874;53.158;6.766;2023-07-31T05:33:12;0.50;;;0.20;;
51814;SDS011;37874;53.158;6.766;2023-07-31T05:35:37;0.82;;;0.30;;
51814;SDS011;37874;53.158;6.766;2023-07-31T05:38:03;0.80;;;0.30;;
51814;SDS011;37874;53.158;6.766;2023-07-31T05:40:31;0.40;;;0.20;;
51814;SDS011;37874;53.158;6.766;2023-07-31T05:43:00;0.77;;;0.30;;
51814;SDS011;37874;53.158;6.766;2023-07-31T05:45:26;0.57;;;0.20;;
51814;SDS011;37874;53.158;6.766;2023-07-31T05:47:52;0.60;;;0.30;;
51814;SDS011;37874;53.158;6.766;2023-07-31T05:50:17;0.50;;;0.20;;
51814;SDS011;37874;53.158;6.766;2023-07-31T05:52:43;0.98;;;0.20;;
51814;SDS011;37874;53.158;6.766;2023-07-31T05:55:09;0.88;;;0.30;;
51814;SDS011;37874;53.158;6.766;2023-07-31T05:57:34;0.85;;;0.20;;
51814;SDS011;37874;53.158;6.766;2023-07-31T06:00:01;0.73;;;0.20;;
51814;SDS011;37874;53.158;6.766;2023-07-31T06:02:27;1.17;;;0.30;;
51814;SDS011;37874;53.158;6.766;2023-07-31T06:04:53;0.68;;;0.22;;
51814;SDS011;37874;53.158;6.766;2023-07-31T06:07:18;0.93;;;0.25;;
51814;SDS011;37874;53.158;6.766;2023-07-31T06:09:44;0.82;;;0.25;;
51814;SDS011;37874;53.158;6.766;2023-07-31T06:12:10;0.80;;;0.20;;
51814;SDS011;37874;53.158;6.766;2023-07-31T06:14:36;0.70;;;0.30;;
51814;SDS011;37874;53.158;6.766;2023-07-31T06:17:02;0.80;;;0.30;;
51814;SDS011;37874;53.158;6.766;2023-07-31T06:19:28;0.90;;;0.30;;
51814;SDS011;37874;53.158;6.766;2023-07-31T06:21:53;1.30;;;0.40;;
51814;SDS011;37874;53.158;6.766;2023-07-31T06:24:19;0.65;;;0.30;;
51814;SDS011;37874;53.158;6.766;2023-07-31T06:26:45;0.77;;;0.30;;
51814;SDS011;37874;53.158;6.766;2023-07-31T06:29:11;0.13;;;0.10;;
51814;SDS011;37874;53.158;6.766;2023-07-31T06:31:36;0.60;;;0.20;;
51814;SDS011;37874;53.158;6.766;2023-07-31T06:34:02;0.85;;;0.38;;
51814;SDS011;37874;53.158;6.766;2023-07-31T06:36:28;1.00;;;0.43;;
51814;SDS011;37874;53.158;6.766;2023-07-31T06:38:53;0.65;;;0.20;;
51814;SDS011;37874;53.158;6.766;2023-07-31T06:41:19;0.50;;;0.22;;
51814;SDS011;37874;53.158;6.766;2023-07-31T06:43:44;0.65;;;0.30;;
51814;SDS011;37874;53.158;6.766;2023-07-31T06:46:11;1.35;;;0.30;;
51814;SDS011;37874;53.158;6.766;2023-07-31T06:48:36;0.45;;;0.20;;
51814;SDS011;37874;53.158;6.766;2023-07-31T06:51:02;2.03;;;0.40;;
51814;SDS011;37874;53.158;6.766;2023-07-31T06:53:28;2.15;;;0.38;;
51814;SDS011;37874;53.158;6.766;2023-07-31T06:55:54;1.77;;;0.30;;
51814;SDS011;37874;53.158;6.766;2023-07-31T06:58:20;1.70;;;0.30;;
51814;SDS011;37874;53.158;6.766;2023-07-31T07:00:45;1.95;;;0.60;;
51814;SDS011;37874;53.158;6.766;2023-07-31T07:03:11;2.40;;;0.38;;
51814;SDS011;37874;53.158;6.766;2023-07-31T07:05:39;2.03;;;0.30;;
51814;SDS011;37874;53.158;6.766;2023-07-31T07:08:05;3.45;;;0.45;;
51814;SDS011;37874;53.158;6.766;2023-07-31T07:10:31;2.20;;;0.50;;
51814;SDS011;37874;53.158;6.766;2023-07-31T07:12:56;1.58;;;0.50;;
51814;SDS011;37874;53.158;6.766;2023-07-31T07:15:22;1.75;;;0.60;;
51814;SDS011;37874;53.158;6.766;2023-07-31T07:17:48;1.20;;;0.40;;
51814;SDS011;37874;53.158;6.766;2023-07-31T07:20:13;2.05;;;0.40;;
51814;SDS011;37874;53.158;6.766;2023-07-31T07:22:39;1.67;;;0.50;;
51814;SDS011;37874;53.158;6.766;2023-07-31T07:25:06;2.50;;;0.52;;
51814;SDS011;37874;53.158;6.766;2023-07-31T07:27:32;1.92;;;0.50;;
51814;SDS011;37874;53.158;6.766;2023-07-31T07:29:58;1.23;;;0.50;;
51814;SDS011;37874;53.158;6.766;2023-07-31T07:32:24;2.17;;;0.47;;
51814;SDS011;37874;53.158;6.766;2023-07-31T07:34:49;1.77;;;0.60;;
51814;SDS011;37874;53.158;6.766;2023-07-31T07:37:15;1.48;;;0.60;;
51814;SDS011;37874;53.158;6.766;2023-07-31T07:39:41;2.33;;;0.80;;
51814;SDS011;37874;53.158;6.766;2023-07-31T07:42:07;1.58;;;0.68;;
51814;SDS011;37874;53.158;6.766;2023-07-31T07:44:33;2.20;;;0.70;;
51814;SDS011;37874;53.158;6.766;2023-07-31T07:46:58;1.80;;;0.60;;
51814;SDS011;37874;53.158;6.766;2023-07-31T07:49:24;3.00;;;0.82;;
51814;SDS011;37874;53.158;6.766;2023-07-31T07:51:49;1.88;;;0.70;;
51814;SDS011;37874;53.158;6.766;2023-07-31T07:54:15;2.53;;;0.80;;
51814;SDS011;37874;53.158;6.766;2023-07-31T07:56:46;1.80;;;0.70;;
51814;SDS011;37874;53.158;6.766;2023-07-31T07:59:12;1.65;;;0.68;;
51814;SDS011;37874;53.158;6.766;2023-07-31T08:01:37;2.35;;;1.00;;
51814;SDS011;37874;53.158;6.766;2023-07-31T08:04:03;2.60;;;0.90;;
51814;SDS011;37874;53.158;6.766;2023-07-31T08:06:29;2.97;;;1.00;;
51814;SDS011;37874;53.158;6.766;2023-07-31T08:08:55;2.35;;;0.80;;
51814;SDS011;37874;53.158;6.766;2023-07-31T08:11:21;2.22;;;0.73;;
51814;SDS011;37874;53.158;6.766;2023-07-31T08:13:48;2.40;;;0.68;;
51814;SDS011;37874;53.158;6.766;2023-07-31T08:16:14;2.38;;;0.77;;
51814;SDS011;37874;53.158;6.766;2023-07-31T08:18:40;2.03;;;0.80;;
51814;SDS011;37874;53.158;6.766;2023-07-31T08:21:07;2.20;;;0.90;;
51814;SDS011;37874;53.158;6.766;2023-07-31T08:23:33;2.05;;;0.80;;
51814;SDS011;37874;53.158;6.766;2023-07-31T08:25:59;2.05;;;0.73;;
51814;SDS011;37874;53.158;6.766;2023-07-31T08:28:25;2.47;;;0.90;;
51814;SDS011;37874;53.158;6.766;2023-07-31T08:30:50;2.00;;;0.70;;
51814;SDS011;37874;53.158;6.766;2023-07-31T08:33:16;1.08;;;0.52;;
51814;SDS011;37874;53.158;6.766;2023-07-31T08:35:42;2.10;;;0.75;;
51814;SDS011;37874;53.158;6.766;2023-07-31T08:38:07;2.63;;;0.90;;
51814;SDS011;37874;53.158;6.766;2023-07-31T08:40:35;1.83;;;0.80;;
51814;SDS011;37874;53.158;6.766;2023-07-31T08:43:02;2.03;;;0.80;;
51814;SDS011;37874;53.158;6.766;2023-07-31T08:45:28;2.75;;;1.00;;
51814;SDS011;37874;53.158;6.766;2023-07-31T08:47:55;1.98;;;0.90;;
51814;SDS011;37874;53.158;6.766;2023-07-31T08:50:22;2.35;;;0.80;;
51814;SDS011;37874;53.158;6.766;2023-07-31T08:52:49;2.60;;;1.02;;
51814;SDS011;37874;53.158;6.766;2023-07-31T08:55:15;1.80;;;0.77;;
51814;SDS011;37874;53.158;6.766;2023-07-31T08:57:42;1.45;;;0.68;;
51814;SDS011;37874;53.158;6.766;2023-07-31T09:00:09;1.60;;;0.88;;
51814;SDS011;37874;53.158;6.766;2023-07-31T09:05:13;1.70;;;0.80;;
51814;SDS011;37874;53.158;6.766;2023-07-31T09:07:40;1.77;;;0.77;;
51814;SDS011;37874;53.158;6.766;2023-07-31T09:10:11;1.90;;;0.80;;
51814;SDS011;37874;53.158;6.766;2023-07-31T09:12:37;2.20;;;0.82;;
51814;SDS011;37874;53.158;6.766;2023-07-31T09:15:04;1.75;;;0.60;;
51814;SDS011;37874;53.158;6.766;2023-07-31T09:17:31;1.83;;;0.70;;
51814;SDS011;37874;53.158;6.766;2023-07-31T09:19:57;1.42;;;0.60;;
51814;SDS011;37874;53.158;6.766;2023-07-31T09:22:33;1.70;;;0.73;;
51814;SDS011;37874;53.158;6.766;2023-07-31T09:25:18;1.80;;;0.60;;
51814;SDS011;37874;53.158;6.766;2023-07-31T09:30:22;1.33;;;0.60;;
51814;SDS011;37874;53.158;6.766;2023-07-31T09:32:48;2.00;;;0.75;;
51814;SDS011;37874;53.158;6.766;2023-07-31T09:35:18;2.35;;;0.75;;
51814;SDS011;37874;53.158;6.766;2023-07-31T09:37:49;1.50;;;0.77;;
51814;SDS011;37874;53.158;6.766;2023-07-31T09:40:32;1.55;;;0.63;;
51814;SDS011;37874;53.158;6.766;2023-07-31T09:43:18;1.58;;;0.73;;
51814;SDS011;37874;53.158;6.766;2023-07-31T09:45:46;1.48;;;0.52;;
51814;SDS011;37874;53.158;6.766;2023-07-31T09:48:18;1.70;;;0.70;;
51814;SDS011;37874;53.158;6.766;2023-07-31T09:50:48;1.42;;;0.75;;
51814;SDS011;37874;53.158;6.766;2023-07-31T09:53:14;1.35;;;0.50;;
51814;SDS011;37874;53.158;6.766;2023-07-31T09:55:41;1.73;;;0.68;;
51814;SDS011;37874;53.158;6.766;2023-07-31T09:58:09;1.38;;;0.60;;
51814;SDS011;37874;53.158;6.766;2023-07-31T10:00:37;1.00;;;0.50;;
51814;SDS011;37874;53.158;6.766;2023-07-31T10:03:10;1.75;;;0.70;;
51814;SDS011;37874;53.158;6.766;2023-07-31T10:05:43;1.45;;;0.50;;
51814;SDS011;37874;53.158;6.766;2023-07-31T10:08:14;1.38;;;0.60;;
51814;SDS011;37874;53.158;6.766;2023-07-31T10:10:41;1.55;;;0.70;;
51814;SDS011;37874;53.158;6.766;2023-07-31T10:13:08;1.48;;;0.57;;
51814;SDS011;37874;53.158;6.766;2023-07-31T10:15:34;1.02;;;0.50;;
51814;SDS011;37874;53.158;6.766;2023-07-31T10:18:01;0.68;;;0.40;;
51814;SDS011;37874;53.158;6.766;2023-07-31T10:20:28;2.08;;;0.65;;
51814;SDS011;37874;53.158;6.766;2023-07-31T10:22:54;1.45;;;0.65;;
51814;SDS011;37874;53.158;6.766;2023-07-31T10:25:21;0.90;;;0.40;;
51814;SDS011;37874;53.158;6.766;2023-07-31T10:27:47;0.80;;;0.40;;
51814;SDS011;37874;53.158;6.766;2023-07-31T10:30:15;0.98;;;0.40;;
51814;SDS011;37874;53.158;6.766;2023-07-31T10:32:43;0.98;;;0.40;;
51814;SDS011;37874;53.158;6.766;2023-07-31T10:35:10;0.95;;;0.40;;
51814;SDS011;37874;53.158;6.766;2023-07-31T10:37:37;1.23;;;0.45;;
51814;SDS011;37874;53.158;6.766;2023-07-31T10:42:49;1.08;;;0.30;;
51814;SDS011;37874;53.158;6.766;2023-07-31T10:48:04;1.00;;;0.43;;
51814;SDS011;37874;53.158;6.766;2023-07-31T10:50:54;0.93;;;0.40;;
51814;SDS011;37874;53.158;6.766;2023-07-31T10:53:28;1.45;;;0.40;;
51814;SDS011;37874;53.158;6.766;2023-07-31T10:55:58;1.08;;;0.40;;
51814;SDS011;37874;53.158;6.766;2023-07-31T10:58:31;1.52;;;0.50;;
51814;SDS011;37874;53.158;6.766;2023-07-31T11:00:58;0.93;;;0.43;;
51814;SDS011;37874;53.158;6.766;2023-07-31T11:03:26;0.77;;;0.38;;
51814;SDS011;37874;53.158;6.766;2023-07-31T11:06:05;0.80;;;0.40;;
51814;SDS011;37874;53.158;6.766;2023-07-31T11:08:34;0.75;;;0.40;;
51814;SDS011;37874;53.158;6.766;2023-07-31T11:13:27;0.98;;;0.47;;
51814;SDS011;37874;53.158;6.766;2023-07-31T11:15:53;1.17;;;0.40;;
51814;SDS011;37874;53.158;6.766;2023-07-31T11:18:19;0.93;;;0.40;;
51814;SDS011;37874;53.158;6.766;2023-07-31T11:20:46;1.10;;;0.40;;
51814;SDS011;37874;53.158;6.766;2023-07-31T11:23:12;1.05;;;0.30;;
51814;SDS011;37874;53.158;6.766;2023-07-31T11:25:43;0.63;;;0.32;;
51814;SDS011;37874;53.158;6.766;2023-07-31T11:28:09;0.70;;;0.35;;
51814;SDS011;37874;53.158;6.766;2023-07-31T11:30:36;0.52;;;0.30;;
51814;SDS011;37874;53.158;6.766;2023-07-31T11:33:03;0.98;;;0.30;;
51814;SDS011;37874;53.158;6.766;2023-07-31T11:35:32;0.52;;;0.30;;
51814;SDS011;37874;53.158;6.766;2023-07-31T11:38:00;1.27;;;0.30;;
51814;SDS011;37874;53.158;6.766;2023-07-31T11:40:26;0.98;;;0.40;;
51814;SDS011;37874;53.158;6.766;2023-07-31T11:43:04;1.75;;;0.20;;
51814;SDS011;37874;53.158;6.766;2023-07-31T11:45:30;0.70;;;0.30;;
51814;SDS011;37874;53.158;6.766;2023-07-31T11:47:56;0.60;;;0.30;;
51814;SDS011;37874;53.158;6.766;2023-07-31T11:50:22;2.08;;;0.30;;
51814;SDS011;37874;53.158;6.766;2023-07-31T11:52:52;0.70;;;0.30;;
51814;SDS011;37874;53.158;6.766;2023-07-31T11:55:22;1.25;;;0.32;;
51814;SDS011;37874;53.158;6.766;2023-07-31T11:57:48;0.75;;;0.20;;
51814;SDS011;37874;53.158;6.766;2023-07-31T12:00:15;0.50;;;0.20;;
51814;SDS011;37874;53.158;6.766;2023-07-31T12:02:41;0.70;;;0.30;;
51814;SDS011;37874;53.158;6.766;2023-07-31T12:05:11;0.98;;;0.30;;
51814;SDS011;37874;53.158;6.766;2023-07-31T12:07:44;0.77;;;0.30;;
51814;SDS011;37874;53.158;6.766;2023-07-31T12:10:24;0.40;;;0.10;;
51814;SDS011;37874;53.158;6.766;2023-07-31T12:13:05;0.30;;;0.20;;
51814;SDS011;37874;53.158;6.766;2023-07-31T12:15:37;1.05;;;0.20;;
51814;SDS011;37874;53.158;6.766;2023-07-31T12:18:11;1.58;;;0.30;;
51814;SDS011;37874;53.158;6.766;2023-07-31T12:23:12;0.55;;;0.30;;
51814;SDS011;37874;53.158;6.766;2023-07-31T12:25:39;0.52;;;0.30;;
51814;SDS011;37874;53.158;6.766;2023-07-31T12:28:05;0.88;;;0.20;;
51814;SDS011;37874;53.158;6.766;2023-07-31T12:30:33;1.10;;;0.30;;
51814;SDS011;37874;53.158;6.766;2023-07-31T12:33:06;0.65;;;0.20;;
51814;SDS011;37874;53.158;6.766;2023-07-31T12:35:38;0.80;;;0.20;;
51814;SDS011;37874;53.158;6.766;2023-07-31T12:38:06;0.65;;;0.20;;
51814;SDS011;37874;53.158;6.766;2023-07-31T12:40:32;1.00;;;0.30;;
51814;SDS011;37874;53.158;6.766;2023-07-31T12:43:00;0.73;;;0.20;;
51814;SDS011;37874;53.158;6.766;2023-07-31T12:45:27;2.60;;;0.30;;
51814;SDS011;37874;53.158;6.766;2023-07-31T12:47:53;0.60;;;0.30;;
51814;SDS011;37874;53.158;6.766;2023-07-31T12:50:18;1.42;;;0.30;;
51814;SDS011;37874;53.158;6.766;2023-07-31T12:52:44;0.73;;;0.32;;
51814;SDS011;37874;53.158;6.766;2023-07-31T12:55:10;0.50;;;0.30;;
51814;SDS011;37874;53.158;6.766;2023-07-31T12:57:36;0.90;;;0.20;;
51814;SDS011;37874;53.158;6.766;2023-07-31T13:00:02;0.50;;;0.20;;
51814;SDS011;37874;53.158;6.766;2023-07-31T13:02:28;0.52;;;0.17;;
51814;SDS011;37874;53.158;6.766;2023-07-31T13:04:54;0.73;;;0.25;;
51814;SDS011;37874;53.158;6.766;2023-07-31T13:07:21;0.88;;;0.30;;
51814;SDS011;37874;53.158;6.766;2023-07-31T13:09:48;0.90;;;0.20;;
51814;SDS011;37874;53.158;6.766;2023-07-31T13:12:13;0.50;;;0.28;;
51814;SDS011;37874;53.158;6.766;2023-07-31T13:14:39;1.13;;;0.20;;
51814;SDS011;37874;53.158;6.766;2023-07-31T13:17:05;1.55;;;0.17;;
51814;SDS011;37874;53.158;6.766;2023-07-31T13:19:31;1.63;;;0.20;;
51814;SDS011;37874;53.158;6.766;2023-07-31T13:21:56;1.10;;;0.30;;
51814;SDS011;37874;53.158;6.766;2023-07-31T13:24:22;1.00;;;0.25;;
51814;SDS011;37874;53.158;6.766;2023-07-31T13:26:48;1.30;;;0.20;;
51814;SDS011;37874;53.158;6.766;2023-07-31T13:29:13;1.17;;;0.38;;
51814;SDS011;37874;53.158;6.766;2023-07-31T13:31:39;1.17;;;0.32;;
51814;SDS011;37874;53.158;6.766;2023-07-31T13:34:04;1.92;;;0.30;;
51814;SDS011;37874;53.158;6.766;2023-07-31T13:36:30;0.90;;;0.20;;
51814;SDS011;37874;53.158;6.766;2023-07-31T13:38:56;1.67;;;0.30;;
51814;SDS011;37874;53.158;6.766;2023-07-31T13:41:21;2.03;;;0.40;;
51814;SDS011;37874;53.158;6.766;2023-07-31T13:43:47;1.42;;;0.28;;
51814;SDS011;37874;53.158;6.766;2023-07-31T13:46:12;1.52;;;0.55;;
51814;SDS011;37874;53.158;6.766;2023-07-31T13:48:38;0.98;;;0.20;;
51814;SDS011;37874;53.158;6.766;2023-07-31T13:51:04;0.47;;;0.20;;
51814;SDS011;37874;53.158;6.766;2023-07-31T13:53:29;0.52;;;0.30;;
51814;SDS011;37874;53.158;6.766;2023-07-31T13:55:55;0.25;;;0.13;;
51814;SDS011;37874;53.158;6.766;2023-07-31T13:58:21;1.33;;;0.30;;
51814;SDS011;37874;53.158;6.766;2023-07-31T14:00:46;1.65;;;0.50;;
51814;SDS011;37874;53.158;6.766;2023-07-31T14:03:12;1.65;;;0.30;;
51814;SDS011;37874;53.158;6.766;2023-07-31T14:05:37;1.92;;;0.40;;
51814;SDS011;37874;53.158;6.766;2023-07-31T14:08:04;1.55;;;0.40;;
51814;SDS011;37874;53.158;6.766;2023-07-31T14:10:30;0.80;;;0.20;;
51814;SDS011;37874;53.158;6.766;2023-07-31T14:12:56;2.63;;;0.40;;
51814;SDS011;37874;53.158;6.766;2023-07-31T14:15:22;0.80;;;0.30;;
51814;SDS011;37874;53.158;6.766;2023-07-31T14:17:47;1.45;;;0.30;;
51814;SDS011;37874;53.158;6.766;2023-07-31T14:20:13;0.93;;;0.20;;
51814;SDS011;37874;53.158;6.766;2023-07-31T14:22:39;1.40;;;0.50;;
51814;SDS011;37874;53.158;6.766;2023-07-31T14:25:04;1.08;;;0.28;;
51814;SDS011;37874;53.158;6.766;2023-07-31T14:27:30;1.02;;;0.50;;
51814;SDS011;37874;53.158;6.766;2023-07-31T14:29:56;2.63;;;0.30;;
51814;SDS011;37874;53.158;6.766;2023-07-31T14:32:22;0.88;;;0.40;;
51814;SDS011;37874;53.158;6.766;2023-07-31T14:34:51;2.13;;;0.40;;
51814;SDS011;37874;53.158;6.766;2023-07-31T14:37:16;2.60;;;0.88;;
51814;SDS011;37874;53.158;6.766;2023-07-31T14:39:42;2.17;;;0.40;;
51814;SDS011;37874;53.158;6.766;2023-07-31T14:42:08;2.25;;;0.50;;
51814;SDS011;37874;53.158;6.766;2023-07-31T14:44:34;2.25;;;0.60;;
51814;SDS011;37874;53.158;6.766;2023-07-31T14:47:00;2.22;;;0.47;;
51814;SDS011;37874;53.158;6.766;2023-07-31T14:49:25;3.38;;;0.80;;
51814;SDS011;37874;53.158;6.766;2023-07-31T14:51:53;3.13;;;0.52;;
51814;SDS011;37874;53.158;6.766;2023-07-31T14:54:19;2.65;;;0.63;;
51814;SDS011;37874;53.158;6.766;2023-07-31T14:56:44;2.45;;;0.80;;
51814;SDS011;37874;53.158;6.766;2023-07-31T14:59:10;3.10;;;0.70;;
51814;SDS011;37874;53.158;6.766;2023-07-31T15:01:36;2.97;;;0.85;;
51814;SDS011;37874;53.158;6.766;2023-07-31T15:04:02;2.05;;;0.65;;
51814;SDS011;37874;53.158;6.766;2023-07-31T15:06:28;3.47;;;0.60;;
51814;SDS011;37874;53.158;6.766;2023-07-31T15:08:54;1.48;;;0.63;;